sensor_id;sensor_type;location;lat;lon;timestamp;P1;durP1;ratioP1;P2;durP2;ratioP2
32323;SDS011;25666;44.350;9.222;2024-01-11T00:00:34;4.40;;;2.35;;
32323;SDS011;25666;44.350;9.222;2024-01-11T00:03:00;4.28;;;2.80;;
32323;SDS011;25666;44.350;9.222;2024-01-11T00:05:25;2.70;;;2.22;;
32323;SDS011;25666;44.350;9.222;2024-01-11T00:07:51;4.25;;;2.50;;
32323;SDS011;25666;44.350;9.222;2024-01-11T00:10:17;5.78;;;2.40;;
32323;SDS011;25666;44.350;9.222;2024-01-11T00:12:43;4.03;;;2.50;;
32323;SDS011;25666;44.350;9.222;2024-01-11T00:15:09;3.63;;;2.00;;
32323;SDS011;25666;44.350;9.222;2024-01-11T00:17:35;4.38;;;2.53;;
32323;SDS011;25666;44.350;9.222;2024-01-11T00:20:01;5.20;;;2.13;;
32323;SDS011;25666;44.350;9.222;2024-01-11T00:22:27;3.45;;;2.33;;
32323;SDS011;25666;44.350;9.222;2024-01-11T00:24:52;5.22;;;2.70;;
32323;SDS011;25666;44.350;9.222;2024-01-11T00:27:18;5.40;;;2.65;;
32323;SDS011;25666;44.350;9.222;2024-01-11T00:29:43;4.93;;;2.42;;
32323;SDS011;25666;44.350;9.222;2024-01-11T00:32:09;4.72;;;2.90;;
32323;SDS011;25666;44.350;9.222;2024-01-11T00:34:35;7.82;;;2.90;;
32323;SDS011;25666;44.350;9.222;2024-01-11T00:37:01;5.32;;;2.92;;
32323;SDS011;25666;44.350;9.222;2024-01-11T00:39:27;3.25;;;2.38;;
32323;SDS011;25666;44.350;9.222;2024-01-11T00:41:52;6.28;;;3.13;;
32323;SDS011;25666;44.350;9.222;2024-01-11T00:44:18;4.90;;;2.90;;
32323;SDS011;25666;44.350;9.222;2024-01-11T00:46:43;5.53;;;2.88;;
32323;SDS011;25666;44.350;9.222;2024-01-11T00:49:09;5.57;;;2.92;;
32323;SDS011;25666;44.350;9.222;2024-01-11T00:51:35;4.03;;;2.50;;
32323;SDS011;25666;44.350;9.222;2024-01-11T00:54:01;2.55;;;1.92;;
32323;SDS011;25666;44.350;9.222;2024-01-11T00:56:26;4.45;;;2.70;;
32323;SDS011;25666;44.350;9.222;2024-01-11T00:58:52;5.63;;;2.95;;
32323;SDS011;25666;44.350;9.222;2024-01-11T01:01:18;4.15;;;2.60;;
32323;SDS011;25666;44.350;9.222;2024-01-11T01:03:43;4.57;;;3.08;;
32323;SDS011;25666;44.350;9.222;2024-01-11T01:06:09;4.95;;;2.80;;
32323;SDS011;25666;44.350;9.222;2024-01-11T01:08:35;7.47;;;3.63;;
32323;SDS011;25666;44.350;9.222;2024-01-11T01:11:00;6.05;;;2.65;;
32323;SDS011;25666;44.350;9.222;2024-01-11T01:13:26;7.20;;;2.78;;
32323;SDS011;25666;44.350;9.222;2024-01-11T01:15:51;5.57;;;2.88;;
32323;SDS011;25666;44.350;9.222;2024-01-11T01:18:17;3.67;;;2.55;;
32323;SDS011;25666;44.350;9.222;2024-01-11T01:20:42;4.43;;;2.58;;
32323;SDS011;25666;44.350;9.222;2024-01-11T01:23:08;5.00;;;2.65;;
32323;SDS011;25666;44.350;9.222;2024-01-11T01:25:33;5.30;;;3.35;;
32323;SDS011;25666;44.350;9.222;2024-01-11T01:27:59;5.25;;;2.50;;
32323;SDS011;25666;44.350;9.222;2024-01-11T01:30:26;5.03;;;2.35;;
32323;SDS011;25666;44.350;9.222;2024-01-11T01:32:54;6.50;;;3.40;;
32323;SDS011;25666;44.350;9.222;2024-01-11T01:35:19;6.47;;;2.88;;
32323;SDS011;25666;44.350;9.222;2024-01-11T01:37:45;5.82;;;2.83;;
32323;SDS011;25666;44.350;9.222;2024-01-11T01:40:11;4.88;;;3.00;;
32323;SDS011;25666;44.350;9.222;2024-01-11T01:42:40;5.38;;;2.80;;
32323;SDS011;25666;44.350;9.222;2024-01-11T01:45:09;7.82;;;3.13;;
32323;SDS011;25666;44.350;9.222;2024-01-11T01:47:35;4.63;;;2.60;;
32323;SDS011;25666;44.350;9.222;2024-01-11T01:50:01;4.85;;;2.90;;
32323;SDS011;25666;44.350;9.222;2024-01-11T01:52:27;5.75;;;3.05;;
32323;SDS011;25666;44.350;9.222;2024-01-11T01:54:53;6.07;;;3.20;;
32323;SDS011;25666;44.350;9.222;2024-01-11T01:57:20;7.18;;;3.08;;
32323;SDS011;25666;44.350;9.222;2024-01-11T01:59:45;4.85;;;2.97;;
32323;SDS011;25666;44.350;9.222;2024-01-11T02:02:16;8.32;;;3.38;;
32323;SDS011;25666;44.350;9.222;2024-01-11T02:04:41;6.07;;;3.22;;
32323;SDS011;25666;44.350;9.222;2024-01-11T02:07:07;4.68;;;2.83;;
32323;SDS011;25666;44.350;9.222;2024-01-11T02:09:33;4.63;;;2.75;;
32323;SDS011;25666;44.350;9.222;2024-01-11T02:12:00;5.70;;;3.03;;
32323;SDS011;25666;44.350;9.222;2024-01-11T02:14:26;4.15;;;3.03;;
32323;SDS011;25666;44.350;9.222;2024-01-11T02:16:52;4.60;;;2.78;;
32323;SDS011;25666;44.350;9.222;2024-01-11T02:19:19;5.10;;;3.08;;
32323;SDS011;25666;44.350;9.222;2024-01-11T02:21:46;5.60;;;3.25;;
32323;SDS011;25666;44.350;9.222;2024-01-11T02:24:13;5.97;;;2.95;;
32323;SDS011;25666;44.350;9.222;2024-01-11T02:29:40;5.53;;;3.28;;
32323;SDS011;25666;44.350;9.222;2024-01-11T02:32:05;7.28;;;3.55;;
32323;SDS011;25666;44.350;9.222;2024-01-11T02:34:31;5.95;;;3.22;;
32323;SDS011;25666;44.350;9.222;2024-01-11T02:36:58;5.90;;;3.38;;
32323;SDS011;25666;44.350;9.222;2024-01-11T02:39:23;5.78;;;3.22;;
32323;SDS011;25666;44.350;9.222;2024-01-11T02:41:50;6.05;;;3.25;;
32323;SDS011;25666;44.350;9.222;2024-01-11T02:44:17;8.18;;;3.08;;
32323;SDS011;25666;44.350;9.222;2024-01-11T02:46:42;5.22;;;2.88;;
32323;SDS011;25666;44.350;9.222;2024-01-11T02:49:08;5.80;;;3.35;;
32323;SDS011;25666;44.350;9.222;2024-01-11T02:51:34;8.52;;;3.22;;
32323;SDS011;25666;44.350;9.222;2024-01-11T02:54:01;6.40;;;3.25;;
32323;SDS011;25666;44.350;9.222;2024-01-11T02:56:26;5.63;;;3.10;;
32323;SDS011;25666;44.350;9.222;2024-01-11T02:58:52;7.78;;;3.30;;
32323;SDS011;25666;44.350;9.222;2024-01-11T03:01:17;5.45;;;3.20;;
32323;SDS011;25666;44.350;9.222;2024-01-11T03:03:43;5.95;;;3.78;;
32323;SDS011;25666;44.350;9.222;2024-01-11T03:06:08;5.60;;;2.83;;
32323;SDS011;25666;44.350;9.222;2024-01-11T03:08:34;5.18;;;3.50;;
32323;SDS011;25666;44.350;9.222;2024-01-11T03:10:59;5.03;;;2.78;;
32323;SDS011;25666;44.350;9.222;2024-01-11T03:13:25;8.43;;;3.78;;
32323;SDS011;25666;44.350;9.222;2024-01-11T03:15:50;6.60;;;3.28;;
32323;SDS011;25666;44.350;9.222;2024-01-11T03:18:16;6.93;;;3.60;;
32323;SDS011;25666;44.350;9.222;2024-01-11T03:20:42;6.22;;;3.55;;
32323;SDS011;25666;44.350;9.222;2024-01-11T03:23:07;6.88;;;3.60;;
32323;SDS011;25666;44.350;9.222;2024-01-11T03:25:33;5.65;;;3.20;;
32323;SDS011;25666;44.350;9.222;2024-01-11T03:27:58;7.20;;;3.20;;
32323;SDS011;25666;44.350;9.222;2024-01-11T03:30:24;5.57;;;3.15;;
32323;SDS011;25666;44.350;9.222;2024-01-11T03:32:50;7.60;;;3.17;;
32323;SDS011;25666;44.350;9.222;2024-01-11T03:35:15;5.70;;;3.20;;
32323;SDS011;25666;44.350;9.222;2024-01-11T03:37:41;8.38;;;3.55;;
32323;SDS011;25666;44.350;9.222;2024-01-11T03:40:07;5.97;;;3.33;;
32323;SDS011;25666;44.350;9.222;2024-01-11T03:42:32;5.70;;;3.15;;
32323;SDS011;25666;44.350;9.222;2024-01-11T03:44:58;5.70;;;3.05;;
32323;SDS011;25666;44.350;9.222;2024-01-11T03:47:23;8.00;;;3.83;;
32323;SDS011;25666;44.350;9.222;2024-01-11T03:49:49;5.40;;;3.03;;
32323;SDS011;25666;44.350;9.222;2024-01-11T03:52:14;5.13;;;3.30;;
32323;SDS011;25666;44.350;9.222;2024-01-11T03:54:40;7.22;;;3.30;;
32323;SDS011;25666;44.350;9.222;2024-01-11T03:57:05;6.78;;;4.00;;
32323;SDS011;25666;44.350;9.222;2024-01-11T03:59:34;4.63;;;3.08;;
32323;SDS011;25666;44.350;9.222;2024-01-11T04:02:00;8.10;;;3.80;;
32323;SDS011;25666;44.350;9.222;2024-01-11T04:04:25;11.88;;;4.28;;
32323;SDS011;25666;44.350;9.222;2024-01-11T04:06:51;4.63;;;2.92;;
32323;SDS011;25666;44.350;9.222;2024-01-11T04:09:17;7.80;;;3.42;;
32323;SDS011;25666;44.350;9.222;2024-01-11T04:11:43;6.38;;;3.30;;
32323;SDS011;25666;44.350;9.222;2024-01-11T04:14:08;7.07;;;3.35;;
32323;SDS011;25666;44.350;9.222;2024-01-11T04:16:34;6.25;;;3.28;;
32323;SDS011;25666;44.350;9.222;2024-01-11T04:19:04;6.35;;;3.50;;
32323;SDS011;25666;44.350;9.222;2024-01-11T04:21:30;5.15;;;3.15;;
32323;SDS011;25666;44.350;9.222;2024-01-11T04:23:55;5.50;;;3.00;;
32323;SDS011;25666;44.350;9.222;2024-01-11T04:26:21;4.45;;;3.15;;
32323;SDS011;25666;44.350;9.222;2024-01-11T04:28:49;5.90;;;3.45;;
32323;SDS011;25666;44.350;9.222;2024-01-11T04:31:16;7.88;;;3.53;;
32323;SDS011;25666;44.350;9.222;2024-01-11T04:33:42;5.50;;;3.10;;
32323;SDS011;25666;44.350;9.222;2024-01-11T04:36:08;11.60;;;3.60;;
32323;SDS011;25666;44.350;9.222;2024-01-11T04:38:35;7.55;;;3.85;;
32323;SDS011;25666;44.350;9.222;2024-01-11T04:41:02;7.50;;;3.90;;
32323;SDS011;25666;44.350;9.222;2024-01-11T04:43:32;9.80;;;3.72;;
32323;SDS011;25666;44.350;9.222;2024-01-11T04:45:58;5.40;;;3.60;;
32323;SDS011;25666;44.350;9.222;2024-01-11T04:48:23;6.70;;;3.47;;
32323;SDS011;25666;44.350;9.222;2024-01-11T04:50:49;6.93;;;3.38;;
32323;SDS011;25666;44.350;9.222;2024-01-11T04:53:14;9.77;;;3.67;;
32323;SDS011;25666;44.350;9.222;2024-01-11T04:55:40;9.18;;;4.32;;
32323;SDS011;25666;44.350;9.222;2024-01-11T04:58:06;15.93;;;7.65;;
32323;SDS011;25666;44.350;9.222;2024-01-11T05:00:31;8.75;;;4.63;;
32323;SDS011;25666;44.350;9.222;2024-01-11T05:02:57;8.00;;;4.05;;
32323;SDS011;25666;44.350;9.222;2024-01-11T05:05:22;7.35;;;3.90;;
32323;SDS011;25666;44.350;9.222;2024-01-11T05:07:48;7.80;;;3.63;;
32323;SDS011;25666;44.350;9.222;2024-01-11T05:10:13;6.80;;;3.65;;
32323;SDS011;25666;44.350;9.222;2024-01-11T05:12:39;12.10;;;4.22;;
32323;SDS011;25666;44.350;9.222;2024-01-11T05:15:05;9.13;;;3.75;;
32323;SDS011;25666;44.350;9.222;2024-01-11T05:17:33;6.00;;;4.35;;
32323;SDS011;25666;44.350;9.222;2024-01-11T05:19:59;8.35;;;5.35;;
32323;SDS011;25666;44.350;9.222;2024-01-11T05:22:24;8.85;;;5.82;;
32323;SDS011;25666;44.350;9.222;2024-01-11T05:24:50;8.07;;;5.28;;
32323;SDS011;25666;44.350;9.222;2024-01-11T05:27:15;8.32;;;5.93;;
32323;SDS011;25666;44.350;9.222;2024-01-11T05:29:41;9.65;;;5.72;;
32323;SDS011;25666;44.350;9.222;2024-01-11T05:32:06;8.73;;;5.25;;
32323;SDS011;25666;44.350;9.222;2024-01-11T05:34:32;8.10;;;4.90;;
32323;SDS011;25666;44.350;9.222;2024-01-11T05:36:57;7.00;;;4.53;;
32323;SDS011;25666;44.350;9.222;2024-01-11T05:39:22;7.13;;;4.07;;
32323;SDS011;25666;44.350;9.222;2024-01-11T05:41:48;8.38;;;4.43;;
32323;SDS011;25666;44.350;9.222;2024-01-11T05:44:14;5.75;;;4.15;;
32323;SDS011;25666;44.350;9.222;2024-01-11T05:46:39;8.85;;;4.00;;
32323;SDS011;25666;44.350;9.222;2024-01-11T05:49:05;9.50;;;3.53;;
32323;SDS011;25666;44.350;9.222;2024-01-11T05:51:30;6.32;;;4.30;;
32323;SDS011;25666;44.350;9.222;2024-01-11T05:53:56;6.50;;;3.90;;
32323;SDS011;25666;44.350;9.222;2024-01-11T05:56:22;6.20;;;3.95;;
32323;SDS011;25666;44.350;9.222;2024-01-11T05:58:47;7.97;;;4.82;;
32323;SDS011;25666;44.350;9.222;2024-01-11T06:01:13;6.97;;;4.10;;
32323;SDS011;25666;44.350;9.222;2024-01-11T06:03:38;6.57;;;4.20;;
32323;SDS011;25666;44.350;9.222;2024-01-11T06:06:04;6.85;;;4.20;;
32323;SDS011;25666;44.350;9.222;2024-01-11T06:08:30;5.90;;;4.20;;
32323;SDS011;25666;44.350;9.222;2024-01-11T06:10:56;9.13;;;4.53;;
32323;SDS011;25666;44.350;9.222;2024-01-11T06:13:22;8.20;;;4.68;;
32323;SDS011;25666;44.350;9.222;2024-01-11T06:15:47;7.32;;;3.92;;
32323;SDS011;25666;44.350;9.222;2024-01-11T06:18:13;8.80;;;4.78;;
32323;SDS011;25666;44.350;9.222;2024-01-11T06:20:38;7.75;;;4.90;;
32323;SDS011;25666;44.350;9.222;2024-01-11T06:23:04;8.07;;;4.45;;
32323;SDS011;25666;44.350;9.222;2024-01-11T06:25:29;13.30;;;4.80;;
32323;SDS011;25666;44.350;9.222;2024-01-11T06:27:55;9.85;;;5.18;;
32323;SDS011;25666;44.350;9.222;2024-01-11T06:30:20;9.73;;;4.72;;
32323;SDS011;25666;44.350;9.222;2024-01-11T06:32:46;6.72;;;5.03;;
32323;SDS011;25666;44.350;9.222;2024-01-11T06:35:11;11.60;;;5.38;;
32323;SDS011;25666;44.350;9.222;2024-01-11T06:37:37;10.32;;;5.40;;
32323;SDS011;25666;44.350;9.222;2024-01-11T06:40:02;10.68;;;5.43;;
32323;SDS011;25666;44.350;9.222;2024-01-11T06:42:29;8.13;;;5.15;;
32323;SDS011;25666;44.350;9.222;2024-01-11T06:44:55;9.05;;;5.90;;
32323;SDS011;25666;44.350;9.222;2024-01-11T06:47:21;14.60;;;4.90;;
32323;SDS011;25666;44.350;9.222;2024-01-11T06:49:47;6.63;;;5.25;;
32323;SDS011;25666;44.350;9.222;2024-01-11T06:52:12;12.52;;;5.40;;
32323;SDS011;25666;44.350;9.222;2024-01-11T06:54:39;13.70;;;6.45;;
32323;SDS011;25666;44.350;9.222;2024-01-11T06:57:05;10.18;;;5.97;;
32323;SDS011;25666;44.350;9.222;2024-01-11T06:59:30;6.88;;;4.53;;
32323;SDS011;25666;44.350;9.222;2024-01-11T07:01:56;10.00;;;5.20;;
32323;SDS011;25666;44.350;9.222;2024-01-11T07:04:21;14.13;;;5.93;;
32323;SDS011;25666;44.350;9.222;2024-01-11T07:06:47;8.15;;;5.50;;
32323;SDS011;25666;44.350;9.222;2024-01-11T07:09:12;8.75;;;6.13;;
32323;SDS011;25666;44.350;9.222;2024-01-11T07:11:38;10.88;;;5.90;;
32323;SDS011;25666;44.350;9.222;2024-01-11T07:14:03;8.25;;;5.00;;
32323;SDS011;25666;44.350;9.222;2024-01-11T07:16:29;16.65;;;5.60;;
32323;SDS011;25666;44.350;9.222;2024-01-11T07:18:56;10.57;;;5.80;;
32323;SDS011;25666;44.350;9.222;2024-01-11T07:21:22;11.15;;;5.78;;
32323;SDS011;25666;44.350;9.222;2024-01-11T07:24:00;11.27;;;5.45;;
32323;SDS011;25666;44.350;9.222;2024-01-11T07:26:25;9.88;;;6.13;;
32323;SDS011;25666;44.350;9.222;2024-01-11T07:28:52;11.30;;;6.03;;
32323;SDS011;25666;44.350;9.222;2024-01-11T07:31:20;14.55;;;6.03;;
32323;SDS011;25666;44.350;9.222;2024-01-11T07:33:45;7.50;;;5.28;;
32323;SDS011;25666;44.350;9.222;2024-01-11T07:36:11;10.20;;;5.65;;
32323;SDS011;25666;44.350;9.222;2024-01-11T07:38:37;9.60;;;5.45;;
32323;SDS011;25666;44.350;9.222;2024-01-11T07:41:02;11.65;;;5.15;;
32323;SDS011;25666;44.350;9.222;2024-01-11T07:43:28;11.50;;;5.32;;
32323;SDS011;25666;44.350;9.222;2024-01-11T07:45:56;14.05;;;5.53;;
32323;SDS011;25666;44.350;9.222;2024-01-11T07:48:22;12.52;;;5.30;;
32323;SDS011;25666;44.350;9.222;2024-01-11T07:50:50;13.73;;;4.72;;
32323;SDS011;25666;44.350;9.222;2024-01-11T07:53:16;8.35;;;5.05;;
32323;SDS011;25666;44.350;9.222;2024-01-11T07:55:42;7.75;;;4.70;;
32323;SDS011;25666;44.350;9.222;2024-01-11T07:58:08;17.02;;;6.07;;
32323;SDS011;25666;44.350;9.222;2024-01-11T08:00:33;15.63;;;5.88;;
32323;SDS011;25666;44.350;9.222;2024-01-11T08:02:59;16.17;;;5.32;;
32323;SDS011;25666;44.350;9.222;2024-01-11T08:05:25;8.68;;;4.25;;
32323;SDS011;25666;44.350;9.222;2024-01-11T08:07:51;23.08;;;5.95;;
32323;SDS011;25666;44.350;9.222;2024-01-11T08:10:16;12.15;;;5.47;;
32323;SDS011;25666;44.350;9.222;2024-01-11T08:12:42;12.50;;;4.70;;
32323;SDS011;25666;44.350;9.222;2024-01-11T08:15:08;18.65;;;6.05;;
32323;SDS011;25666;44.350;9.222;2024-01-11T08:17:46;11.27;;;5.07;;
32323;SDS011;25666;44.350;9.222;2024-01-11T08:22:41;7.65;;;3.90;;
32323;SDS011;25666;44.350;9.222;2024-01-11T08:25:09;5.70;;;3.40;;
32323;SDS011;25666;44.350;9.222;2024-01-11T08:27:35;12.40;;;3.70;;
32323;SDS011;25666;44.350;9.222;2024-01-11T08:30:01;8.70;;;4.30;;
32323;SDS011;25666;44.350;9.222;2024-01-11T08:32:27;7.85;;;3.50;;
32323;SDS011;25666;44.350;9.222;2024-01-11T08:34:54;10.50;;;4.43;;
32323;SDS011;25666;44.350;9.222;2024-01-11T08:37:19;8.02;;;4.40;;
32323;SDS011;25666;44.350;9.222;2024-01-11T08:39:45;8.55;;;3.40;;
32323;SDS011;25666;44.350;9.222;2024-01-11T08:42:11;7.85;;;3.60;;
32323;SDS011;25666;44.350;9.222;2024-01-11T08:44:40;5.18;;;3.58;;
32323;SDS011;25666;44.350;9.222;2024-01-11T08:47:07;4.15;;;2.40;;
32323;SDS011;25666;44.350;9.222;2024-01-11T08:49:40;5.88;;;2.53;;
32323;SDS011;25666;44.350;9.222;2024-01-11T08:54:33;7.13;;;3.50;;
32323;SDS011;25666;44.350;9.222;2024-01-11T08:56:59;6.50;;;2.50;;
32323;SDS011;25666;44.350;9.222;2024-01-11T08:59:24;7.20;;;3.28;;
32323;SDS011;25666;44.350;9.222;2024-01-11T09:01:54;7.68;;;3.50;;
32323;SDS011;25666;44.350;9.222;2024-01-11T09:04:19;20.02;;;5.53;;
32323;SDS011;25666;44.350;9.222;2024-01-11T09:06:45;25.02;;;5.60;;
32323;SDS011;25666;44.350;9.222;2024-01-11T09:09:11;16.85;;;4.88;;
32323;SDS011;25666;44.350;9.222;2024-01-11T09:11:39;9.60;;;3.55;;
32323;SDS011;25666;44.350;9.222;2024-01-11T09:14:08;6.53;;;3.90;;
32323;SDS011;25666;44.350;9.222;2024-01-11T09:16:36;8.87;;;4.23;;
32323;SDS011;25666;44.350;9.222;2024-01-11T09:19:02;6.15;;;3.22;;
32323;SDS011;25666;44.350;9.222;2024-01-11T09:21:27;14.70;;;4.80;;
32323;SDS011;25666;44.350;9.222;2024-01-11T09:23:53;4.07;;;2.33;;
32323;SDS011;25666;44.350;9.222;2024-01-11T09:26:18;6.05;;;2.50;;
32323;SDS011;25666;44.350;9.222;2024-01-11T09:28:44;12.55;;;4.00;;
32323;SDS011;25666;44.350;9.222;2024-01-11T09:31:11;11.35;;;3.85;;
32323;SDS011;25666;44.350;9.222;2024-01-11T09:33:36;4.70;;;2.40;;
32323;SDS011;25666;44.350;9.222;2024-01-11T09:36:03;5.47;;;2.80;;
32323;SDS011;25666;44.350;9.222;2024-01-11T09:38:28;3.85;;;2.58;;
32323;SDS011;25666;44.350;9.222;2024-01-11T09:41:05;6.03;;;3.22;;
32323;SDS011;25666;44.350;9.222;2024-01-11T09:43:33;7.07;;;3.20;;
32323;SDS011;25666;44.350;9.222;2024-01-11T09:46:03;11.27;;;4.72;;
32323;SDS011;25666;44.350;9.222;2024-01-11T09:48:33;6.70;;;5.82;;
32323;SDS011;25666;44.350;9.222;2024-01-11T09:51:01;6.25;;;5.50;;
32323;SDS011;25666;44.350;9.222;2024-01-11T09:53:28;11.20;;;6.03;;
32323;SDS011;25666;44.350;9.222;2024-01-11T09:55:58;6.57;;;5.30;;
32323;SDS011;25666;44.350;9.222;2024-01-11T09:58:25;6.90;;;5.43;;
32323;SDS011;25666;44.350;9.222;2024-01-11T10:00:55;6.50;;;4.43;;
32323;SDS011;25666;44.350;9.222;2024-01-11T10:03:24;5.80;;;3.97;;
32323;SDS011;25666;44.350;9.222;2024-01-11T10:05:52;10.13;;;4.82;;
32323;SDS011;25666;44.350;9.222;2024-01-11T10:08:22;7.72;;;4.32;;
32323;SDS011;25666;44.350;9.222;2024-01-11T10:10:49;6.22;;;4.35;;
32323;SDS011;25666;44.350;9.222;2024-01-11T10:13:15;5.35;;;3.80;;
32323;SDS011;25666;44.350;9.222;2024-01-11T10:15:41;4.80;;;3.45;;
32323;SDS011;25666;44.350;9.222;2024-01-11T10:18:08;4.22;;;3.65;;
32323;SDS011;25666;44.350;9.222;2024-01-11T10:20:34;9.93;;;4.28;;
32323;SDS011;25666;44.350;9.222;2024-01-11T10:22:59;5.65;;;3.78;;
32323;SDS011;25666;44.350;9.222;2024-01-11T10:25:26;4.70;;;3.33;;
32323;SDS011;25666;44.350;9.222;2024-01-11T10:27:52;7.88;;;3.42;;
32323;SDS011;25666;44.350;9.222;2024-01-11T10:30:17;4.90;;;3.50;;
32323;SDS011;25666;44.350;9.222;2024-01-11T10:32:44;5.63;;;3.08;;
32323;SDS011;25666;44.350;9.222;2024-01-11T10:35:10;7.28;;;4.75;;
32323;SDS011;25666;44.350;9.222;2024-01-11T10:37:36;5.70;;;3.03;;
32323;SDS011;25666;44.350;9.222;2024-01-11T10:40:06;4.85;;;3.00;;
32323;SDS011;25666;44.350;9.222;2024-01-11T10:45:17;8.88;;;5.03;;
32323;SDS011;25666;44.350;9.222;2024-01-11T10:47:51;6.75;;;2.42;;
32323;SDS011;25666;44.350;9.222;2024-01-11T10:50:22;3.53;;;2.00;;
32323;SDS011;25666;44.350;9.222;2024-01-11T10:53:02;2.72;;;1.88;;
32323;SDS011;25666;44.350;9.222;2024-01-11T10:55:37;3.42;;;2.00;;
32323;SDS011;25666;44.350;9.222;2024-01-11T10:58:05;5.38;;;1.92;;
32323;SDS011;25666;44.350;9.222;2024-01-11T11:00:32;7.55;;;2.17;;
32323;SDS011;25666;44.350;9.222;2024-01-11T11:03:00;3.40;;;1.80;;
32323;SDS011;25666;44.350;9.222;2024-01-11T11:05:28;2.88;;;1.80;;
32323;SDS011;25666;44.350;9.222;2024-01-11T11:08:00;7.97;;;2.40;;
32323;SDS011;25666;44.350;9.222;2024-01-11T11:10:27;4.22;;;2.60;;
32323;SDS011;25666;44.350;9.222;2024-01-11T11:12:54;5.35;;;2.58;;
32323;SDS011;25666;44.350;9.222;2024-01-11T11:15:21;5.22;;;2.70;;
32323;SDS011;25666;44.350;9.222;2024-01-11T11:17:48;5.60;;;2.55;;
32323;SDS011;25666;44.350;9.222;2024-01-11T11:20:15;4.13;;;2.45;;
32323;SDS011;25666;44.350;9.222;2024-01-11T11:22:41;3.72;;;2.53;;
32323;SDS011;25666;44.350;9.222;2024-01-11T11:25:11;5.72;;;3.00;;
32323;SDS011;25666;44.350;9.222;2024-01-11T11:27:49;5.93;;;2.63;;
32323;SDS011;25666;44.350;9.222;2024-01-11T11:30:18;3.85;;;2.47;;
32323;SDS011;25666;44.350;9.222;2024-01-11T11:32:45;4.47;;;2.40;;
32323;SDS011;25666;44.350;9.222;2024-01-11T11:35:11;4.13;;;3.15;;
32323;SDS011;25666;44.350;9.222;2024-01-11T11:37:37;5.63;;;2.67;;
32323;SDS011;25666;44.350;9.222;2024-01-11T11:40:04;5.88;;;3.10;;
32323;SDS011;25666;44.350;9.222;2024-01-11T11:42:31;6.05;;;2.30;;
32323;SDS011;25666;44.350;9.222;2024-01-11T11:44:56;3.92;;;2.25;;
32323;SDS011;25666;44.350;9.222;2024-01-11T11:47:23;5.82;;;2.60;;
32323;SDS011;25666;44.350;9.222;2024-01-11T11:50:02;6.75;;;2.88;;
32323;SDS011;25666;44.350;9.222;2024-01-11T11:55:00;8.57;;;3.13;;
32323;SDS011;25666;44.350;9.222;2024-01-11T11:57:27;3.63;;;2.53;;
32323;SDS011;25666;44.350;9.222;2024-01-11T11:59:56;6.13;;;2.63;;
32323;SDS011;25666;44.350;9.222;2024-01-11T12:02:26;6.82;;;2.78;;
32323;SDS011;25666;44.350;9.222;2024-01-11T12:04:52;5.95;;;2.95;;
32323;SDS011;25666;44.350;9.222;2024-01-11T12:07:22;11.10;;;3.65;;
32323;SDS011;25666;44.350;9.222;2024-01-11T12:09:48;4.85;;;2.88;;
32323;SDS011;25666;44.350;9.222;2024-01-11T12:12:15;3.55;;;2.38;;
32323;SDS011;25666;44.350;9.222;2024-01-11T12:14:42;5.85;;;2.65;;
32323;SDS011;25666;44.350;9.222;2024-01-11T12:17:08;6.22;;;2.55;;
32323;SDS011;25666;44.350;9.222;2024-01-11T12:19:34;4.82;;;2.53;;
32323;SDS011;25666;44.350;9.222;2024-01-11T12:21:59;6.65;;;2.92;;
32323;SDS011;25666;44.350;9.222;2024-01-11T12:24:25;10.57;;;2.75;;
32323;SDS011;25666;44.350;9.222;2024-01-11T12:26:52;6.15;;;3.08;;
32323;SDS011;25666;44.350;9.222;2024-01-11T12:29:19;8.13;;;2.90;;
32323;SDS011;25666;44.350;9.222;2024-01-11T12:31:45;6.93;;;2.45;;
32323;SDS011;25666;44.350;9.222;2024-01-11T12:34:13;4.57;;;2.47;;
32323;SDS011;25666;44.350;9.222;2024-01-11T12:36:40;3.50;;;2.15;;
32323;SDS011;25666;44.350;9.222;2024-01-11T12:39:06;4.38;;;2.63;;
32323;SDS011;25666;44.350;9.222;2024-01-11T12:41:33;9.88;;;3.40;;
32323;SDS011;25666;44.350;9.222;2024-01-11T12:43:59;5.05;;;2.40;;
32323;SDS011;25666;44.350;9.222;2024-01-11T12:46:26;11.63;;;3.20;;
32323;SDS011;25666;44.350;9.222;2024-01-11T12:48:52;6.05;;;3.00;;
32323;SDS011;25666;44.350;9.222;2024-01-11T12:51:19;9.15;;;3.33;;
32323;SDS011;25666;44.350;9.222;2024-01-11T12:53:45;8.10;;;3.30;;
32323;SDS011;25666;44.350;9.222;2024-01-11T12:56:12;8.18;;;2.95;;
32323;SDS011;25666;44.350;9.222;2024-01-11T12:58:40;7.20;;;2.90;;
32323;SDS011;25666;44.350;9.222;2024-01-11T13:01:06;6.28;;;2.80;;
32323;SDS011;25666;44.350;9.222;2024-01-11T13:03:37;5.97;;;3.00;;
32323;SDS011;25666;44.350;9.222;2024-01-11T13:06:04;5.93;;;3.03;;
32323;SDS011;25666;44.350;9.222;2024-01-11T13:08:31;8.13;;;2.80;;
32323;SDS011;25666;44.350;9.222;2024-01-11T13:10:57;6.10;;;3.90;;
32323;SDS011;25666;44.350;9.222;2024-01-11T13:13:22;7.07;;;3.63;;
32323;SDS011;25666;44.350;9.222;2024-01-11T13:15:48;6.70;;;3.55;;
32323;SDS011;25666;44.350;9.222;2024-01-11T13:18:14;9.88;;;3.33;;
32323;SDS011;25666;44.350;9.222;2024-01-11T13:20:40;6.85;;;2.88;;
32323;SDS011;25666;44.350;9.222;2024-01-11T13:25:45;7.05;;;3.25;;
32323;SDS011;25666;44.350;9.222;2024-01-11T13:28:11;6.10;;;3.38;;
32323;SDS011;25666;44.350;9.222;2024-01-11T13:30:37;6.78;;;3.50;;
32323;SDS011;25666;44.350;9.222;2024-01-11T13:33:04;10.38;;;4.35;;
32323;SDS011;25666;44.350;9.222;2024-01-11T13:35:30;5.05;;;3.47;;
32323;SDS011;25666;44.350;9.222;2024-01-11T13:37:56;11.48;;;3.28;;
32323;SDS011;25666;44.350;9.222;2024-01-11T13:40:22;5.70;;;3.33;;
32323;SDS011;25666;44.350;9.222;2024-01-11T13:42:47;6.05;;;3.53;;
32323;SDS011;25666;44.350;9.222;2024-01-11T13:45:13;7.53;;;3.22;;
32323;SDS011;25666;44.350;9.222;2024-01-11T13:47:38;5.13;;;2.80;;
32323;SDS011;25666;44.350;9.222;2024-01-11T13:50:04;10.13;;;3.83;;
32323;SDS011;25666;44.350;9.222;2024-01-11T13:52:30;4.90;;;3.80;;
32323;SDS011;25666;44.350;9.222;2024-01-11T13:54:55;8.60;;;4.07;;
32323;SDS011;25666;44.350;9.222;2024-01-11T13:57:21;7.15;;;3.67;;
32323;SDS011;25666;44.350;9.222;2024-01-11T13:59:46;7.45;;;3.33;;
32323;SDS011;25666;44.350;9.222;2024-01-11T14:02:12;6.63;;;3.45;;
32323;SDS011;25666;44.350;9.222;2024-01-11T14:04:38;10.23;;;3.55;;
32323;SDS011;25666;44.350;9.222;2024-01-11T14:07:04;7.78;;;3.65;;
32323;SDS011;25666;44.350;9.222;2024-01-11T14:09:30;9.48;;;3.50;;
32323;SDS011;25666;44.350;9.222;2024-01-11T14:11:56;7.68;;;3.13;;
32323;SDS011;25666;44.350;9.222;2024-01-11T14:14:21;4.65;;;3.50;;
32323;SDS011;25666;44.350;9.222;2024-01-11T14:16:47;8.52;;;3.65;;
32323;SDS011;25666;44.350;9.222;2024-01-11T14:19:13;6.57;;;3.30;;
32323;SDS011;25666;44.350;9.222;2024-01-11T14:21:38;4.32;;;2.60;;
32323;SDS011;25666;44.350;9.222;2024-01-11T14:24:04;4.60;;;2.88;;
32323;SDS011;25666;44.350;9.222;2024-01-11T14:26:31;4.20;;;3.05;;
32323;SDS011;25666;44.350;9.222;2024-01-11T14:28:58;5.35;;;3.13;;
32323;SDS011;25666;44.350;9.222;2024-01-11T14:31:24;7.35;;;3.60;;
32323;SDS011;25666;44.350;9.222;2024-01-11T14:33:49;10.85;;;3.75;;
32323;SDS011;25666;44.350;9.222;2024-01-11T14:36:15;6.45;;;3.38;;
32323;SDS011;25666;44.350;9.222;2024-01-11T14:38:42;5.88;;;3.38;;
32323;SDS011;25666;44.350;9.222;2024-01-11T14:41:07;5.85;;;3.70;;
32323;SDS011;25666;44.350;9.222;2024-01-11T14:43:34;6.93;;;3.53;;
32323;SDS011;25666;44.350;9.222;2024-01-11T14:46:00;12.18;;;5.00;;
32323;SDS011;25666;44.350;9.222;2024-01-11T14:48:26;10.98;;;4.38;;
32323;SDS011;25666;44.350;9.222;2024-01-11T14:50:56;11.48;;;4.93;;
32323;SDS011;25666;44.350;9.222;2024-01-11T14:53:22;9.25;;;5.28;;
32323;SDS011;25666;44.350;9.222;2024-01-11T14:55:47;11.57;;;5.22;;